Big Bear Station Historical Data
Daily Summary for March 08, 2018 Units:  English    Metric   Both
Next Day »
Daily Weekly Monthly Yearly Custom
  High: Low: Average:
Temperature: 56.3 °F 29.8 °F 41.5 °F
Dew Point: 29.1 °F 13.2 °F 22 °F
Humidity: 74% 20% 49%
Wind Speed: 7.3mph 0.0mph 1.4mph
Wind Gust: -999.0mph - -
Wind- - West
Pressure: 23.55 in 23.49 in -
Precipitation: 0.00 in    
Historical Graphs
 
 
Tabular Data for March 08, 2018
Time Temperature Dew Point Pressure Wind Wind Speed Wind Gust Humidity Rainfall Rate (Hourly)
00:08 32.5 °F 15.9 °F 23.53 in Calm   -999.0 mph 50% 0 in
00:23 32.5 °F 15.4 °F 23.53 in Calm   -999.0 mph 49% 0 in
00:38 32.2 °F 17.0 °F 23.53 in Calm   -999.0 mph 53% 0 in
00:54 32.2 °F 17.0 °F 23.52 in Calm   -999.0 mph 53% 0 in
01:09 32.0 °F 15.4 °F 23.52 in Calm   -999.0 mph 50% 0 in
01:24 32.4 °F 15.8 °F 23.52 in Calm   -999.0 mph 50% 0 in
01:39 31.8 °F 15.3 °F 23.52 in Calm   -999.0 mph 50% 0 in
01:54 31.5 °F 17.2 °F 23.52 in Calm   -999.0 mph 55% 0 in
02:10 31.1 °F 13.2 °F 23.52 in Calm   -999.0 mph 47% 0 in
02:25 31.1 °F 16.0 °F 23.51 in Calm   -999.0 mph 53% 0 in
02:40 30.9 °F 20.1 °F 23.52 in Calm   -999.0 mph 64% 0 in
02:55 31.3 °F 20.9 °F 23.51 in Calm   -999.0 mph 65% 0 in
03:11 30.6 °F 18.7 °F 23.51 in Calm   -999.0 mph 61% 0 in
03:26 30.4 °F 18.2 °F 23.51 in Calm   -999.0 mph 60% 0 in
03:41 30.4 °F 14.0 °F 23.51 in Calm   -999.0 mph 50% 0 in
03:56 29.8 °F 15.2 °F 23.51 in Calm   -999.0 mph 54% 0 in
04:11 30.4 °F 17.0 °F 23.51 in Calm   -999.0 mph 57% 0 in
04:27 30.7 °F 16.0 °F 23.51 in Calm   -999.0 mph 54% 0 in
04:42 29.8 °F 16.4 °F 23.51 in Calm   -999.0 mph 57% 0 in
04:57 30.0 °F 18.6 °F 23.50 in Calm   -999.0 mph 62% 0 in
05:12 30.2 °F 20.9 °F 23.51 in Calm   -999.0 mph 68% 0 in
05:27 29.8 °F 20.5 °F 23.51 in Calm   -999.0 mph 68% 0 in
05:43 30.4 °F 21.8 °F 23.51 in Calm   -999.0 mph 70% 0 in
05:58 30.4 °F 21.1 °F 23.51 in Calm   -999.0 mph 68% 0 in
06:13 30.4 °F 22.1 °F 23.51 in Calm   -999.0 mph 71% 0 in
06:28 30.6 °F 22.6 °F 23.51 in Calm   -999.0 mph 72% 0 in
06:43 30.9 °F 21.9 °F 23.52 in Calm   -999.0 mph 69% 0 in
06:59 30.7 °F 21.4 °F 23.53 in Calm   -999.0 mph 68% 0 in
07:14 31.3 °F 22.7 °F 23.53 in Calm   -999.0 mph 70% 0 in
07:29 33.3 °F 24.2 °F 23.53 in Calm   -999.0 mph 69% 0 in
07:44 33.6 °F 24.9 °F 23.53 in Calm   -999.0 mph 70% 0 in
07:59 34.0 °F 24.5 °F 23.53 in Calm   -999.0 mph 68% 0 in
08:15 34.9 °F 25.1 °F 23.54 in Calm   -999.0 mph 67% 0 in
08:31 36.0 °F 25.7 °F 23.54 in SSE 1.1 mph -999.0 mph 66% 0 in
08:46 38.8 °F 27.7 °F 23.54 in Calm   -999.0 mph 64% 0 in
09:01 42.8 °F 26.4 °F 23.54 in Calm   -999.0 mph 52% 0 in
09:16 46.0 °F 25.8 °F 23.54 in Calm   -999.0 mph 45% 0 in
09:31 47.7 °F 27.9 °F 23.55 in NNW 2.2 mph -999.0 mph 46% 0 in
09:47 49.1 °F 27.6 °F 23.55 in NNW 4.2 mph -999.0 mph 43% 0 in
10:02 49.8 °F 28.2 °F 23.55 in NW 4.2 mph -999.0 mph 43% 0 in
10:17 49.1 °F 28.7 °F 23.55 in NW 3.2 mph -999.0 mph 45% 0 in
10:33 50.2 °F 29.1 °F 23.55 in NW 2.2 mph -999.0 mph 44% 0 in
10:48 52.7 °F 27.8 °F 23.55 in Calm   -999.0 mph 38% 0 in
11:03 53.1 °F 26.8 °F 23.54 in NNW 4.7 mph -999.0 mph 36% 0 in
11:18 53.1 °F 26.2 °F 23.54 in NW 2.7 mph -999.0 mph 35% 0 in
11:33 53.6 °F 28.6 °F 23.54 in Calm   -999.0 mph 38% 0 in
11:49 55.2 °F 27.3 °F 23.54 in NW 3.2 mph -999.0 mph 34% 0 in
12:04 55.2 °F 26.6 °F 23.53 in West 2.2 mph -999.0 mph 33% 0 in
12:19 56.3 °F 25.2 °F 23.53 in NNE 3.7 mph -999.0 mph 30% 0 in
12:34 55.8 °F 26.4 °F 23.53 in NW 2.7 mph -999.0 mph 32% 0 in
12:49 55.6 °F 17.3 °F 23.52 in NNW 2.7 mph -999.0 mph 22% 0 in
13:05 54.9 °F 22.4 °F 23.51 in NW 3.2 mph -999.0 mph 28% 0 in
13:20 56.3 °F 19.9 °F 23.51 in NNW 6.8 mph -999.0 mph 24% 0 in
13:35 54.9 °F 22.4 °F 23.51 in WNW 3.7 mph -999.0 mph 28% 0 in
13:51 54.5 °F 22.9 °F 23.50 in NW 4.7 mph -999.0 mph 29% 0 in
14:06 54.7 °F 19.5 °F 23.50 in NNW 7.3 mph -999.0 mph 25% 0 in
14:21 55.6 °F 15.1 °F 23.50 in NE 1.1 mph -999.0 mph 20% 0 in
14:36 55.2 °F 20.0 °F 23.50 in NW 5.3 mph -999.0 mph 25% 0 in
14:51 54.5 °F 23.7 °F 23.50 in WNW 5.8 mph -999.0 mph 30% 0 in
15:07 53.8 °F 23.8 °F 23.50 in NW 4.7 mph -999.0 mph 31% 0 in
15:22 53.8 °F 22.3 °F 23.50 in NW 5.3 mph -999.0 mph 29% 0 in
15:37 53.2 °F 25.5 °F 23.49 in NNW 5.3 mph -999.0 mph 34% 0 in
15:52 52.3 °F 25.4 °F 23.49 in WNW 5.8 mph -999.0 mph 35% 0 in
16:07 52.2 °F 20.9 °F 23.50 in NW 2.7 mph -999.0 mph 29% 0 in
16:23 52.7 °F 16.9 °F 23.49 in NW 6.8 mph -999.0 mph 24% 0 in
16:38 51.1 °F 17.4 °F 23.49 in Calm   -999.0 mph 26% 0 in
16:53 50.4 °F 20.1 °F 23.49 in NW 1.1 mph -999.0 mph 30% 0 in
17:09 49.5 °F 19.3 °F 23.49 in Calm   -999.0 mph 30% 0 in
17:24 48.7 °F 20.1 °F 23.49 in South 1.1 mph -999.0 mph 32% 0 in
17:39 48.0 °F 19.5 °F 23.49 in SSW 1.7 mph -999.0 mph 32% 0 in
17:54 47.3 °F 19.6 °F 23.49 in SSW 2.7 mph -999.0 mph 33% 0 in
18:09 46.9 °F 20.7 °F 23.49 in NW 5.3 mph -999.0 mph 35% 0 in
18:25 46.4 °F 20.2 °F 23.50 in WSW 1.7 mph -999.0 mph 35% 0 in
18:40 45.9 °F 20.4 °F 23.50 in Calm   -999.0 mph 36% 0 in
18:57 45.5 °F 20.7 °F 23.50 in Calm   -999.0 mph 37% 0 in
19:13 45.1 °F 19.7 °F 23.50 in NNW 1.7 mph -999.0 mph 36% 0 in
19:28 44.2 °F 20.2 °F 23.50 in South 1.1 mph -999.0 mph 38% 0 in
19:43 43.7 °F 23.2 °F 23.50 in NNE 1.7 mph -999.0 mph 44% 0 in
19:58 43.3 °F 24.4 °F 23.50 in Calm   -999.0 mph 47% 0 in
20:14 42.8 °F 24.9 °F 23.51 in Calm   -999.0 mph 49% 0 in
20:29 41.9 °F 25.1 °F 23.51 in Calm   -999.0 mph 51% 0 in
20:45 41.0 °F 24.7 °F 23.51 in Calm   -999.0 mph 52% 0 in
21:00 40.1 °F 25.2 °F 23.51 in Calm   -999.0 mph 55% 0 in
21:15 38.8 °F 24.9 °F 23.51 in Calm   -999.0 mph 57% 0 in
21:30 38.1 °F 25.4 °F 23.51 in SSE 1.1 mph -999.0 mph 60% 0 in
21:45 37.2 °F 25.4 °F 23.51 in Calm   -999.0 mph 62% 0 in
22:01 36.3 °F 25.3 °F 23.51 in Calm   -999.0 mph 64% 0 in
22:16 35.4 °F 24.4 °F 23.50 in Calm   -999.0 mph 64% 0 in
22:31 34.7 °F 24.9 °F 23.50 in Calm   -999.0 mph 67% 0 in
22:46 34.3 °F 24.8 °F 23.50 in Calm   -999.0 mph 68% 0 in
23:01 34.0 °F 25.2 °F 23.49 in Calm   -999.0 mph 70% 0 in
23:17 33.6 °F 25.2 °F 23.49 in North 1.7 mph -999.0 mph 71% 0 in
23:32 33.3 °F 25.6 °F 23.49 in Calm   -999.0 mph 73% 0 in
23:47 33.4 °F 26.0 °F 23.49 in Calm   -999.0 mph 74% 0 in
Big Bear CA Weather